Time;durP1;ratioP1;P1;durP2;ratioP2;P2;SDS_P1;SDS_P2;PMS_P1;PMS_P2;Temp;Humidity;BMP_temperature;BMP_pressure;BME280_temperature;BME280_humidity;BME280_pressure;Samples;Min_cycle;Max_cycle;Signal;HPM_P1;HPM_P2
2023/03/27 00:01:48;;;;;;;4.30;2.00;;;5.80;99.90;;;;;;5087043;28;20453;-86
2023/03/27 00:04:15;;;;;;;2.60;1.70;;;5.90;99.90;;;;;;5086478;28;21013;-88
2023/03/27 00:06:44;;;;;;;2.87;1.67;;;5.80;99.90;;;;;;5088340;28;20436;-88
2023/03/27 00:09:13;;;;;;;1.83;1.73;;;5.70;99.90;;;;;;5088813;28;20441;-88
2023/03/27 00:11:40;;;;;;;2.73;2.03;;;6.00;99.90;;;;;;5087936;28;20456;-87
2023/03/27 00:14:08;;;;;;;2.20;2.00;;;6.00;99.90;;;;;;5077335;28;20430;-86
2023/03/27 00:16:36;;;;;;;2.07;1.90;;;5.80;99.90;;;;;;5078136;28;20444;-85
2023/03/27 00:19:03;;;;;;;2.00;1.90;;;5.90;99.90;;;;;;5061240;28;20469;-86
2023/03/27 00:21:30;;;;;;;2.67;2.47;;;5.60;99.90;;;;;;5064141;28;20454;-86
2023/03/27 00:23:59;;;;;;;2.77;2.07;;;5.60;99.90;;;;;;5066261;28;20461;-85
2023/03/27 00:26:29;;;;;;;2.50;1.80;;;5.70;99.90;;;;;;5068608;28;20437;-86
2023/03/27 00:28:56;;;;;;;2.10;1.53;;;5.50;99.90;;;;;;5071483;28;20442;-88
2023/03/27 00:31:23;;;;;;;1.70;1.60;;;5.40;99.90;;;;;;5084790;28;20441;-87
2023/03/27 00:33:50;;;;;;;2.17;2.00;;;5.60;99.90;;;;;;5074545;28;20449;-87
2023/03/27 00:36:18;;;;;;;2.30;2.07;;;5.60;99.90;;;;;;5078254;28;20448;-88
2023/03/27 00:38:45;;;;;;;2.20;2.00;;;5.80;99.90;;;;;;5089779;28;20811;-88
2023/03/27 00:41:13;;;;;;;2.53;2.20;;;5.70;99.90;;;;;;5080808;28;20433;-87
2023/03/27 00:43:43;;;;;;;2.30;2.10;;;5.60;99.90;;;;;;5091850;28;20468;-85
2023/03/27 00:46:36;;;;;;;2.30;2.10;;;5.50;99.90;;;;;;5092455;28;20441;-87
2023/03/27 00:49:06;;;;;;;2.30;2.07;;;5.50;99.90;;;;;;5076873;28;20437;-86
2023/03/27 00:51:37;;;;;;;2.93;2.60;;;5.40;99.90;;;;;;5062716;28;20452;-87
2023/03/27 00:54:05;;;;;;;4.43;2.50;;;5.40;99.90;;;;;;5061542;28;20905;-88
2023/03/27 00:56:37;;;;;;;2.07;1.87;;;5.50;99.90;;;;;;5064071;28;20491;-88
2023/03/27 00:59:10;;;;;;;2.47;1.97;;;5.40;99.90;;;;;;5067209;28;20473;-88
2023/03/27 01:01:38;;;;;;;2.07;1.93;;;5.40;99.90;;;;;;5069307;28;20476;-88
2023/03/27 01:04:07;;;;;;;2.50;2.30;;;5.40;99.90;;;;;;5071027;28;20445;-88
2023/03/27 01:06:35;;;;;;;2.43;2.10;;;5.40;99.90;;;;;;5072520;28;20442;-88
2023/03/27 01:09:03;;;;;;;2.40;2.20;;;5.40;99.90;;;;;;5069711;28;20442;-87
2023/03/27 01:11:44;;;;;;;1.70;1.60;;;5.40;99.90;;;;;;5069221;28;20850;-88
2023/03/27 01:14:21;;;;;;;2.37;2.17;;;5.40;99.90;;;;;;5082603;28;20456;-88
2023/03/27 01:17:01;;;;;;;2.30;2.10;;;5.40;99.90;;;;;;5091327;28;20471;-86
2023/03/27 01:20:09;;;;;;;2.17;1.97;;;5.50;99.90;;;;;;5089079;28;20472;-84
2023/03/27 01:23:04;;;;;;;2.20;2.00;;;5.70;99.90;;;;;;5078310;28;20499;-87
2023/03/27 01:26:01;;;;;;;2.60;2.40;;;5.70;99.90;;;;;;5060380;28;20448;-87
2023/03/27 01:28:38;;;;;;;1.83;1.63;;;5.70;99.90;;;;;;5076708;28;20553;-88
2023/03/27 01:31:21;;;;;;;1.70;1.60;;;5.60;99.90;;;;;;5071827;28;20437;-88
2023/03/27 01:34:04;;;;;;;2.43;1.70;;;5.90;99.90;;;;;;5081104;28;20465;-88
2023/03/27 01:37:05;;;;;;;2.10;1.30;;;5.90;99.90;;;;;;5088676;28;20440;-89
2023/03/27 01:39:39;;;;;;;1.50;1.37;;;5.90;99.90;;;;;;5090457;28;20476;-87
2023/03/27 01:42:11;;;;;;;1.70;1.50;;;6.00;99.90;;;;;;5089687;28;20457;-89
2023/03/27 01:44:46;;;;;;;1.57;1.47;;;6.00;99.90;;;;;;5089548;28;20467;-87
2023/03/27 01:47:25;;;;;;;2.13;1.90;;;6.10;99.90;;;;;;5089926;28;20502;-87
2023/03/27 01:49:57;;;;;;;1.77;1.63;;;6.10;99.90;;;;;;5089513;28;20455;-88
2023/03/27 01:52:29;;;;;;;1.60;1.50;;;5.90;99.90;;;;;;5090993;28;20475;-88
2023/03/27 01:55:03;;;;;;;1.53;1.40;;;5.80;99.90;;;;;;5097384;28;20428;-85
2023/03/27 01:57:36;;;;;;;1.50;1.30;;;5.80;99.90;;;;;;5090603;28;20522;-86
2023/03/27 02:00:13;;;;;;;1.87;1.57;;;5.80;99.90;;;;;;5082654;28;20485;-85
2023/03/27 02:02:45;;;;;;;2.30;1.70;;;5.80;99.90;;;;;;5085902;28;20457;-88
2023/03/27 02:05:18;;;;;;;1.70;1.37;;;5.80;99.90;;;;;;5088138;28;20821;-86
2023/03/27 02:07:52;;;;;;;1.70;1.53;;;5.60;99.90;;;;;;5078161;28;20450;-88
2023/03/27 02:10:25;;;;;;;1.40;1.30;;;5.60;99.90;;;;;;5068270;28;20451;-88
2023/03/27 02:12:58;;;;;;;1.50;1.40;;;5.50;99.90;;;;;;5069910;28;20453;-88
2023/03/27 02:15:30;;;;;;;3.30;1.90;;;5.50;99.90;;;;;;5069010;28;20454;-87
2023/03/27 02:18:04;;;;;;;1.30;0.93;;;5.70;99.90;;;;;;5068860;28;20454;-88
2023/03/27 02:20:33;;;;;;;1.73;1.63;;;5.60;99.90;;;;;;5076986;28;20473;-87
2023/03/27 02:23:00;;;;;;;3.13;1.60;;;5.70;99.90;;;;;;5090147;28;20459;-89
2023/03/27 02:25:31;;;;;;;1.60;1.50;;;5.70;99.90;;;;;;5088771;28;20443;-89
2023/03/27 02:28:28;;;;;;;1.50;1.30;;;5.70;99.90;;;;;;5091039;28;20456;-88
2023/03/27 02:31:02;;;;;;;1.40;1.30;;;5.90;99.90;;;;;;5091272;28;20479;-87
2023/03/27 02:33:40;;;;;;;2.07;1.87;;;6.10;99.90;;;;;;5091360;28;20460;-86
2023/03/27 02:36:19;;;;;;;2.23;1.63;;;6.10;99.90;;;;;;5089437;28;20455;-86
2023/03/27 02:38:53;;;;;;;2.80;1.60;;;6.10;99.90;;;;;;5084246;28;20472;-86
2023/03/27 02:41:30;;;;;;;2.07;1.80;;;6.00;99.90;;;;;;5069789;28;20450;-87
2023/03/27 02:44:04;;;;;;;2.23;1.67;;;5.70;99.90;;;;;;5069126;28;20497;-87
2023/03/27 02:46:37;;;;;;;2.30;2.10;;;5.70;99.90;;;;;;5069494;28;20434;-87
2023/03/27 02:49:09;;;;;;;2.00;1.80;;;5.70;99.90;;;;;;5070848;28;20422;-88
2023/03/27 02:51:41;;;;;;;2.30;1.77;;;5.60;99.90;;;;;;5069912;28;20469;-88
2023/03/27 02:54:12;;;;;;;2.03;1.67;;;5.70;99.90;;;;;;5081153;28;20464;-87
2023/03/27 02:56:46;;;;;;;2.27;2.07;;;5.70;99.90;;;;;;5090532;28;20463;-88
2023/03/27 02:59:19;;;;;;;2.10;1.70;;;5.90;99.90;;;;;;5090505;28;20472;-87
2023/03/27 03:01:46;;;;;;;1.60;1.50;;;5.80;99.90;;;;;;5090956;28;20471;-88
2023/03/27 03:04:20;;;;;;;1.50;1.20;;;5.90;99.90;;;;;;5090110;28;20425;-88
2023/03/27 03:06:48;;;;;;;1.30;1.10;;;5.90;99.90;;;;;;5089220;28;20445;-87
2023/03/27 03:09:17;;;;;;;1.47;1.37;;;5.70;99.90;;;;;;5089603;28;20526;-89
2023/03/27 03:11:51;;;;;;;1.40;1.10;;;5.70;99.90;;;;;;5086309;28;20556;-86
2023/03/27 03:14:21;;;;;;;2.03;1.10;;;5.70;99.90;;;;;;5069328;28;20449;-88
2023/03/27 03:16:48;;;;;;;1.30;1.10;;;5.70;99.90;;;;;;5069413;28;20430;-86
2023/03/27 03:19:15;;;;;;;1.40;1.00;;;5.60;99.90;;;;;;5069550;28;20481;-87
2023/03/27 03:21:42;;;;;;;1.40;1.27;;;5.40;99.90;;;;;;5068620;28;20441;-87
2023/03/27 03:24:09;;;;;;;1.60;1.30;;;5.40;99.90;;;;;;5069425;28;20437;-89
2023/03/27 03:26:36;;;;;;;3.73;1.70;;;5.30;99.90;;;;;;5070618;28;20437;-87
2023/03/27 03:29:05;;;;;;;2.13;1.60;;;5.30;99.90;;;;;;5070801;28;20437;-88
2023/03/27 03:31:42;;;;;;;1.50;1.40;;;5.30;99.90;;;;;;5072395;28;20437;-88
2023/03/27 03:34:10;;;;;;;1.70;1.57;;;5.30;99.90;;;;;;5075358;28;20464;-87
2023/03/27 03:36:37;;;;;;;2.37;1.70;;;5.30;99.90;;;;;;5074399;28;20441;-87
2023/03/27 03:39:04;;;;;;;2.53;1.90;;;5.20;99.90;;;;;;5063328;28;20478;-87
2023/03/27 03:41:33;;;;;;;3.13;2.03;;;5.30;99.90;;;;;;5065010;28;20491;-87
2023/03/27 03:44:00;;;;;;;2.10;1.90;;;5.40;99.90;;;;;;5066335;28;20454;-87
2023/03/27 03:46:28;;;;;;;2.30;1.70;;;5.40;99.90;;;;;;5080926;28;20489;-87
2023/03/27 03:48:56;;;;;;;3.10;2.17;;;5.40;99.90;;;;;;5076229;28;20467;-86
2023/03/27 03:51:24;;;;;;;3.53;1.90;;;5.30;99.90;;;;;;5088797;28;20468;-88
2023/03/27 03:53:51;;;;;;;2.83;1.93;;;5.30;99.90;;;;;;5076518;28;20516;-86
2023/03/27 03:56:18;;;;;;;1.57;1.47;;;5.20;99.90;;;;;;5075685;28;20420;-88
2023/03/27 03:58:46;;;;;;;3.33;1.87;;;5.30;99.90;;;;;;5076713;28;20464;-87
2023/03/27 04:01:13;;;;;;;2.03;1.83;;;5.30;99.90;;;;;;5075663;28;20451;-87
2023/03/27 04:03:42;;;;;;;2.00;1.80;;;5.40;99.90;;;;;;5074217;28;20878;-87
2023/03/27 04:06:09;;;;;;;2.30;1.97;;;5.30;99.90;;;;;;5074760;28;20495;-88
2023/03/27 04:08:37;;;;;;;1.70;1.60;;;5.30;99.90;;;;;;5074945;28;20429;-88
2023/03/27 04:11:05;;;;;;;1.90;1.60;;;5.40;99.90;;;;;;5074478;28;20441;-88
2023/03/27 04:13:35;;;;;;;4.23;3.80;;;5.40;99.90;;;;;;5075069;28;20490;-87
2023/03/27 04:16:03;;;;;;;3.73;3.40;;;5.50;99.90;;;;;;5075129;28;20440;-88
2023/03/27 04:18:33;;;;;;;2.70;2.47;;;5.60;99.90;;;;;;5073727;28;20421;-87
2023/03/27 04:21:02;;;;;;;2.10;1.90;;;5.70;99.90;;;;;;5073290;28;20831;-86
2023/03/27 04:23:30;;;;;;;2.77;2.10;;;5.70;99.90;;;;;;5072734;28;20520;-86
2023/03/27 04:25:58;;;;;;;2.47;2.27;;;5.70;99.90;;;;;;5089322;28;20480;-88
2023/03/27 04:28:26;;;;;;;2.30;1.90;;;5.60;99.90;;;;;;5084932;28;20437;-88
2023/03/27 04:30:53;;;;;;;3.43;2.00;;;5.50;99.90;;;;;;5077037;28;20442;-87
2023/03/27 04:33:21;;;;;;;2.40;1.90;;;5.60;99.90;;;;;;5078891;28;20441;-87
2023/03/27 04:35:51;;;;;;;2.13;1.70;;;5.60;99.90;;;;;;5075052;28;20453;-87
2023/03/27 04:38:19;;;;;;;2.53;1.60;;;5.70;99.90;;;;;;5084307;28;20441;-87
2023/03/27 04:40:48;;;;;;;1.60;1.30;;;5.60;99.90;;;;;;5078825;28;20496;-87
2023/03/27 04:43:16;;;;;;;1.43;1.33;;;5.70;99.90;;;;;;5070751;28;20459;-88
2023/03/27 04:45:54;;;;;;;2.87;1.40;;;5.60;99.90;;;;;;5081179;28;20520;-87
2023/03/27 04:48:21;;;;;;;1.20;1.00;;;5.60;99.90;;;;;;5078791;28;20433;-88
2023/03/27 04:50:49;;;;;;;1.90;1.63;;;5.50;99.90;;;;;;5081444;28;20450;-88
2023/03/27 04:53:22;;;;;;;1.63;1.20;;;5.60;99.90;;;;;;5084246;28;20479;-87
2023/03/27 04:55:50;;;;;;;1.20;1.10;;;5.70;99.90;;;;;;5082693;28;20442;-88
2023/03/27 04:58:18;;;;;;;2.53;1.60;;;5.60;99.90;;;;;;5083597;28;20650;-87
2023/03/27 05:00:49;;;;;;;1.83;1.30;;;5.60;99.90;;;;;;5080048;28;21047;-86
2023/03/27 05:03:16;;;;;;;1.93;1.70;;;5.60;99.90;;;;;;5081216;28;20495;-88
2023/03/27 05:05:44;;;;;;;1.50;1.40;;;5.50;99.90;;;;;;5081881;28;20531;-88
2023/03/27 05:08:11;;;;;;;1.43;1.33;;;5.60;99.90;;;;;;5086665;28;20453;-86
2023/03/27 05:10:39;;;;;;;1.60;1.40;;;5.50;99.90;;;;;;5079289;28;20467;-86
2023/03/27 05:13:07;;;;;;;2.80;1.93;;;5.50;99.90;;;;;;5076550;28;20453;-87
2023/03/27 05:15:37;;;;;;;2.10;1.50;;;5.40;99.90;;;;;;5084888;28;20433;-88
2023/03/27 05:18:05;;;;;;;2.00;1.80;;;5.40;99.90;;;;;;5069693;28;20456;-86
2023/03/27 05:20:33;;;;;;;1.50;1.40;;;5.20;99.90;;;;;;5085548;28;20495;-88
2023/03/27 05:23:00;;;;;;;1.73;1.63;;;5.20;99.90;;;;;;5086389;28;20467;-89
2023/03/27 05:25:28;;;;;;;1.90;1.53;;;5.20;99.90;;;;;;5083360;28;20455;-88
2023/03/27 05:27:57;;;;;;;2.13;1.60;;;5.20;99.90;;;;;;5080275;28;20905;-88
2023/03/27 05:30:25;;;;;;;1.80;1.43;;;5.30;99.90;;;;;;5083392;28;20459;-90
2023/03/27 05:32:53;;;;;;;1.80;1.50;;;5.30;99.90;;;;;;5079517;28;20972;-87
2023/03/27 05:35:23;;;;;;;1.70;1.60;;;5.20;99.90;;;;;;5078197;28;20516;-91
2023/03/27 05:37:51;;;;;;;1.83;1.63;;;4.80;99.90;;;;;;5076001;28;20429;-87
2023/03/27 05:40:21;;;;;;;1.83;1.73;;;5.10;99.90;;;;;;5073646;28;20502;-87
2023/03/27 05:42:50;;;;;;;2.70;1.67;;;5.00;99.90;;;;;;5084213;28;20516;-87
2023/03/27 05:45:19;;;;;;;3.10;2.67;;;4.90;99.90;;;;;;5076389;28;20528;-87
2023/03/27 05:47:47;;;;;;;1.90;1.70;;;4.90;99.90;;;;;;5077584;28;20447;-90
2023/03/27 05:50:15;;;;;;;3.00;1.70;;;5.00;99.90;;;;;;5076114;28;20445;-90
2023/03/27 05:52:42;;;;;;;2.10;1.50;;;5.00;99.90;;;;;;5076645;28;20473;-88
2023/03/27 05:55:11;;;;;;;1.80;1.37;;;4.90;99.90;;;;;;5094910;28;20475;-89
2023/03/27 05:57:38;;;;;;;1.60;1.50;;;4.70;99.90;;;;;;5097670;28;20433;-88
2023/03/27 06:00:10;;;;;;;2.80;1.53;;;4.50;99.90;;;;;;5097999;28;20470;-90
2023/03/27 06:02:38;;;;;;;2.17;1.80;;;4.10;99.90;;;;;;5097851;28;20469;-91
2023/03/27 06:05:09;;;;;;;2.83;2.40;;;4.20;99.90;;;;;;5042051;22;20491;-49
2023/03/27 06:07:38;;;;;;;1.13;0.90;;;4.30;99.90;;;;;;5016141;28;20473;-50
2023/03/27 06:10:06;;;;;;;1.37;1.10;;;4.50;99.90;;;;;;5015590;28;20442;-50
2023/03/27 06:12:33;;;;;;;2.07;1.77;;;4.30;99.90;;;;;;5014866;28;20495;-51
2023/03/27 06:15:00;;;;;;;2.03;1.70;;;4.40;99.90;;;;;;5013659;28;20450;-52
2023/03/27 06:17:27;;;;;;;2.60;1.83;;;4.60;99.90;;;;;;5015678;28;20478;-51
2023/03/27 06:19:56;;;;;;;1.60;1.07;;;4.50;99.90;;;;;;5015454;28;20565;-50
2023/03/27 06:22:23;;;;;;;1.67;1.27;;;4.40;99.90;;;;;;5015668;28;20502;-51
2023/03/27 06:24:50;;;;;;;1.20;0.77;;;4.30;99.90;;;;;;5015536;28;20944;-51
2023/03/27 06:27:18;;;;;;;1.90;1.50;;;4.10;99.90;;;;;;5016076;28;20470;-52
2023/03/27 06:29:46;;;;;;;2.20;1.50;;;4.20;99.90;;;;;;5015115;28;20847;-51
2023/03/27 06:32:15;;;;;;;1.80;1.60;;;4.10;99.90;;;;;;5014634;28;20500;-52
2023/03/27 06:34:43;;;;;;;5.07;1.87;;;4.40;99.90;;;;;;5015346;28;20456;-51
2023/03/27 06:37:11;;;;;;;1.90;1.60;;;4.20;99.90;;;;;;5015324;28;20487;-52
2023/03/27 06:39:38;;;;;;;1.77;1.20;;;3.90;99.90;;;;;;5015640;28;20845;-51
2023/03/27 06:42:05;;;;;;;2.93;2.73;;;3.90;99.90;;;;;;5015732;28;20537;-50
2023/03/27 06:44:32;;;;;;;2.00;1.80;;;4.00;99.90;;;;;;5013947;28;20481;-52
2023/03/27 06:46:59;;;;;;;2.37;2.07;;;4.00;99.90;;;;;;5015462;28;20525;-51
2023/03/27 06:49:26;;;;;;;1.53;1.43;;;4.10;99.90;;;;;;5015438;28;20479;-52
2023/03/27 06:51:53;;;;;;;2.00;1.60;;;4.20;99.90;;;;;;5015297;28;20464;-50
2023/03/27 06:54:21;;;;;;;4.47;1.73;;;4.10;99.90;;;;;;5015646;28;20861;-52
2023/03/27 06:56:48;;;;;;;1.90;1.73;;;4.20;99.90;;;;;;5015198;28;20506;-53
2023/03/27 06:59:15;;;;;;;1.70;1.10;;;4.30;99.90;;;;;;5014014;28;20486;-52
2023/03/27 07:01:43;;;;;;;5.70;5.10;;;4.30;99.90;;;;;;5014876;28;20501;-51
2023/03/27 07:04:10;;;;;;;4.33;3.20;;;4.10;99.90;;;;;;5013939;28;20544;-51
2023/03/27 07:06:37;;;;;;;2.40;1.83;;;3.80;99.90;;;;;;5014060;28;20446;-52
2023/03/27 07:09:04;;;;;;;2.23;1.57;;;3.70;99.90;;;;;;5014038;28;20916;-51
2023/03/27 07:11:33;;;;;;;2.80;1.90;;;3.80;99.90;;;;;;5014102;28;20461;-52
2023/03/27 07:14:00;;;;;;;2.10;1.97;;;3.70;99.90;;;;;;5014178;28;20524;-51
2023/03/27 07:16:27;;;;;;;3.10;2.00;;;3.70;99.90;;;;;;5015601;28;20481;-51
2023/03/27 07:18:54;;;;;;;2.30;2.10;;;3.70;99.90;;;;;;5015014;28;20502;-51
2023/03/27 07:21:21;;;;;;;3.00;2.70;;;3.90;99.90;;;;;;5013216;28;20481;-52
2023/03/27 07:23:48;;;;;;;3.70;2.93;;;4.10;99.90;;;;;;5013595;28;20464;-51
2023/03/27 07:26:15;;;;;;;3.83;3.50;;;3.70;99.90;;;;;;5013936;28;20533;-51
2023/03/27 07:28:43;;;;;;;5.77;4.60;;;3.90;99.90;;;;;;5014818;28;20480;-54
2023/03/27 07:31:12;;;;;;;6.00;4.80;;;3.90;99.90;;;;;;5014536;28;20465;-52
2023/03/27 07:33:39;;;;;;;9.20;5.00;;;3.90;99.90;;;;;;5014572;28;20488;-52
2023/03/27 07:36:08;;;;;;;4.70;4.20;;;4.10;99.90;;;;;;5014621;28;20969;-52
2023/03/27 07:38:34;;;;;;;4.23;3.40;;;4.30;99.90;;;;;;5015060;28;20470;-51
2023/03/27 07:41:05;;;;;;;4.10;3.70;;;4.30;99.90;;;;;;5013958;28;20569;-53
2023/03/27 07:43:33;;;;;;;4.73;3.83;;;4.30;99.90;;;;;;5014885;28;20450;-51
2023/03/27 07:46:04;;;;;;;2.30;2.10;;;4.30;99.90;;;;;;5013933;28;20438;-51
2023/03/27 07:48:31;;;;;;;3.80;2.57;;;4.40;99.90;;;;;;5014408;28;20450;-51
2023/03/27 07:50:59;;;;;;;3.37;3.13;;;4.50;99.90;;;;;;5014613;28;20469;-53
2023/03/27 07:53:26;;;;;;;4.40;4.00;;;4.40;99.90;;;;;;5014804;28;20478;-51
2023/03/27 07:55:53;;;;;;;4.17;3.77;;;4.40;99.90;;;;;;5014168;28;20940;-51
2023/03/27 07:58:21;;;;;;;2.80;2.60;;;4.40;99.90;;;;;;5014684;28;20450;-50
2023/03/27 08:00:50;;;;;;;3.20;2.37;;;4.30;99.90;;;;;;5013791;28;20604;-51
2023/03/27 08:03:19;;;;;;;2.87;2.67;;;4.60;99.90;;;;;;5013930;28;20458;-52
2023/03/27 08:05:53;;;;;;;3.47;1.73;;;4.60;99.90;;;;;;5014171;28;20872;-50
2023/03/27 08:08:20;;;;;;;1.10;0.77;;;4.70;99.90;;;;;;5014187;28;20477;-54
2023/03/27 08:10:47;;;;;;;1.70;1.40;;;4.90;99.90;;;;;;5012474;28;20470;-51
2023/03/27 08:13:14;;;;;;;7.07;1.00;;;4.60;99.90;;;;;;5014897;28;20494;-54
2023/03/27 08:15:41;;;;;;;0.90;0.50;;;4.50;99.90;;;;;;5014122;28;20483;-50
2023/03/27 08:18:10;;;;;;;1.07;0.73;;;4.30;99.90;;;;;;5014397;28;20480;-50
2023/03/27 08:20:38;;;;;;;1.30;1.00;;;4.30;99.90;;;;;;5014019;28;20567;-50
2023/03/27 08:23:05;;;;;;;2.60;1.17;;;4.30;99.90;;;;;;5013871;28;20535;-48
2023/03/27 08:25:33;;;;;;;2.57;1.47;;;4.30;99.90;;;;;;5014056;28;20974;-50
2023/03/27 08:28:01;;;;;;;6.43;2.17;;;4.20;99.90;;;;;;5012898;28;20452;-50
2023/03/27 08:30:28;;;;;;;2.93;2.10;;;4.20;99.90;;;;;;5013939;28;20466;-50
2023/03/27 08:32:55;;;;;;;4.57;3.30;;;4.20;99.90;;;;;;5011772;28;20522;-50
2023/03/27 08:35:22;;;;;;;2.60;1.67;;;4.20;99.90;;;;;;5011295;28;20535;-49
2023/03/27 08:37:51;;;;;;;1.93;1.30;;;4.20;99.90;;;;;;5015140;28;20489;-52
2023/03/27 08:40:24;;;;;;;3.43;1.80;;;4.10;99.90;;;;;;5012650;28;20439;-50
2023/03/27 08:42:54;;;;;;;1.07;0.70;;;4.30;99.90;;;;;;4997162;28;21025;-51
2023/03/27 08:45:25;;;;;;;1.00;0.70;;;4.30;99.90;;;;;;5005842;28;20504;-50
2023/03/27 08:47:57;;;;;;;0.90;0.70;;;4.30;99.90;;;;;;5007063;28;20437;-50
2023/03/27 08:50:36;;;;;;;0.80;0.53;;;4.30;99.90;;;;;;5007227;28;20436;-52
2023/03/27 08:53:07;;;;;;;0.93;0.60;;;4.40;99.90;;;;;;5008780;28;20459;-51
2023/03/27 08:55:40;;;;;;;2.10;1.10;;;4.50;99.90;;;;;;5003080;28;20445;-51
2023/03/27 08:58:17;;;;;;;1.00;0.80;;;4.40;99.90;;;;;;4997055;28;20448;-50
2023/03/27 09:00:44;;;;;;;1.03;0.80;;;4.10;99.90;;;;;;4996656;28;20480;-50
2023/03/27 09:03:19;;;;;;;1.00;0.60;;;4.10;99.90;;;;;;4996462;28;20492;-49
2023/03/27 09:05:52;;;;;;;0.90;0.60;;;4.00;99.90;;;;;;4994543;28;20883;-51
2023/03/27 09:08:35;;;;;;;0.90;0.60;;;4.00;99.90;;;;;;4996604;28;20477;-50
2023/03/27 09:11:08;;;;;;;1.00;0.50;;;4.10;99.90;;;;;;4996749;28;20497;-50
2023/03/27 09:13:41;;;;;;;0.90;0.53;;;4.10;99.90;;;;;;4996822;28;20492;-52
2023/03/27 09:16:14;;;;;;;1.00;0.80;;;4.40;99.90;;;;;;4998121;28;20449;-51
2023/03/27 09:18:48;;;;;;;0.90;0.60;;;4.30;99.90;;;;;;4998228;28;20533;-52
2023/03/27 09:21:20;;;;;;;1.50;1.00;;;4.40;99.90;;;;;;4997633;28;20565;-51
2023/03/27 09:23:50;;;;;;;2.17;1.97;;;4.50;99.90;;;;;;4998439;28;20494;-48
2023/03/27 09:26:20;;;;;;;1.70;1.60;;;4.70;99.90;;;;;;4997778;28;20463;-49
2023/03/27 09:28:50;;;;;;;1.20;0.70;;;4.70;99.90;;;;;;4998341;28;20449;-49
2023/03/27 09:31:25;;;;;;;1.23;0.73;;;4.60;99.90;;;;;;4998661;28;20538;-48
2023/03/27 09:33:52;;;;;;;0.80;0.57;;;4.50;99.90;;;;;;4996959;28;20460;-50
2023/03/27 09:36:20;;;;;;;1.20;0.70;;;4.40;99.90;;;;;;4997048;28;20512;-51
2023/03/27 09:38:52;;;;;;;1.10;0.60;;;4.40;99.90;;;;;;4996039;28;20484;-51
2023/03/27 09:41:23;;;;;;;0.90;0.60;;;4.40;99.90;;;;;;4994279;28;20560;-52
2023/03/27 09:43:58;;;;;;;2.00;0.70;;;4.40;99.90;;;;;;4996360;28;21020;-51
2023/03/27 09:46:27;;;;;;;1.30;0.40;;;4.50;99.90;;;;;;4995280;28;20464;-50
2023/03/27 09:48:58;;;;;;;0.90;0.40;;;4.60;99.90;;;;;;5003015;28;20532;-51
2023/03/27 09:51:41;;;;;;;0.90;0.50;;;4.50;99.90;;;;;;5004440;28;20898;-51
2023/03/27 09:54:13;;;;;;;1.00;0.60;;;4.40;99.90;;;;;;5000678;28;20442;-51
2023/03/27 09:56:43;;;;;;;0.90;0.57;;;4.40;99.90;;;;;;4996320;28;20548;-51
2023/03/27 09:59:23;;;;;;;0.90;0.57;;;4.30;99.90;;;;;;4995447;28;20444;-51
2023/03/27 10:01:52;;;;;;;0.90;0.70;;;4.30;99.90;;;;;;4993833;28;20859;-51
2023/03/27 10:04:21;;;;;;;1.00;0.70;;;4.10;99.90;;;;;;4993301;28;20452;-51
2023/03/27 10:06:51;;;;;;;0.90;0.50;;;4.20;99.90;;;;;;4998024;28;20453;-52
2023/03/27 10:09:25;;;;;;;0.90;0.60;;;4.30;99.90;;;;;;5012851;28;20448;-53
2023/03/27 10:12:00;;;;;;;0.83;0.40;;;4.30;99.90;;;;;;5012790;28;20464;-49
2023/03/27 10:14:28;;;;;;;0.93;0.60;;;4.40;99.90;;;;;;5015349;28;20531;-51
2023/03/27 10:16:56;;;;;;;0.87;0.50;;;4.60;99.90;;;;;;5015322;28;21009;-50
2023/03/27 10:19:27;;;;;;;0.80;0.40;;;4.60;99.90;;;;;;5015701;28;20448;-51
2023/03/27 10:21:55;;;;;;;0.80;0.40;;;4.50;99.90;;;;;;5013856;28;20575;-51
2023/03/27 10:24:31;;;;;;;0.90;0.40;;;4.60;99.90;;;;;;5015380;28;20448;-50
2023/03/27 10:27:00;;;;;;;1.33;0.83;;;4.60;99.90;;;;;;5014148;28;20439;-51
2023/03/27 10:29:30;;;;;;;1.23;0.80;;;4.60;99.90;;;;;;5013620;28;20535;-53
2023/03/27 10:32:00;;;;;;;1.10;0.90;;;4.50;99.90;;;;;;5008891;28;20916;-49
2023/03/27 10:34:36;;;;;;;0.80;0.40;;;4.60;99.90;;;;;;5013050;28;20445;-49
2023/03/27 10:37:17;;;;;;;1.10;0.50;;;4.60;99.90;;;;;;5013291;28;20957;-52
2023/03/27 10:39:46;;;;;;;1.07;0.70;;;4.70;99.90;;;;;;5013778;28;20440;-52
2023/03/27 10:42:15;;;;;;;0.90;0.60;;;4.90;99.90;;;;;;5013363;28;20511;-52
2023/03/27 10:44:45;;;;;;;0.80;0.47;;;4.80;99.90;;;;;;5014010;28;20446;-52
2023/03/27 10:47:18;;;;;;;0.80;0.40;;;4.70;99.90;;;;;;5012455;28;20542;-51
2023/03/27 10:49:50;;;;;;;0.87;0.47;;;4.70;99.90;;;;;;5008035;28;20525;-50
2023/03/27 10:52:23;;;;;;;0.90;0.43;;;4.70;99.90;;;;;;5012594;28;20456;-51
2023/03/27 10:55:07;;;;;;;0.80;0.50;;;4.80;99.90;;;;;;5024376;28;20470;-52
2023/03/27 10:57:36;;;;;;;0.90;0.50;;;4.90;99.90;;;;;;5014750;28;20485;-53
2023/03/27 11:00:12;;;;;;;0.90;0.60;;;4.80;99.90;;;;;;5014923;28;20967;-51
2023/03/27 11:02:44;;;;;;;0.80;0.50;;;4.70;99.90;;;;;;5014768;28;20580;-51
2023/03/27 11:05:16;;;;;;;1.10;0.67;;;4.70;99.90;;;;;;5013263;28;20841;-52
2023/03/27 11:07:46;;;;;;;0.90;0.60;;;4.50;99.90;;;;;;5012007;28;20476;-53
2023/03/27 11:10:20;;;;;;;0.90;0.60;;;4.40;99.90;;;;;;5011562;28;20949;-51
2023/03/27 11:12:54;;;;;;;0.80;0.60;;;4.40;99.90;;;;;;5012000;28;20494;-51
2023/03/27 11:15:26;;;;;;;0.80;0.50;;;4.40;99.90;;;;;;5012034;28;20486;-53
2023/03/27 11:17:58;;;;;;;0.90;0.60;;;4.40;99.90;;;;;;5014389;28;20476;-51
2023/03/27 11:20:30;;;;;;;0.90;0.60;;;4.50;99.90;;;;;;5014716;28;20544;-50
2023/03/27 11:23:03;;;;;;;0.90;0.60;;;4.50;99.90;;;;;;5014306;28;20510;-50
2023/03/27 11:25:39;;;;;;;1.47;0.73;;;4.60;99.90;;;;;;5012702;28;20873;-49
2023/03/27 11:28:17;;;;;;;3.13;1.70;;;4.60;99.90;;;;;;5011327;28;20532;-50
2023/03/27 11:30:47;;;;;;;0.90;0.60;;;4.50;99.90;;;;;;5011565;28;20491;-49
2023/03/27 11:33:40;;;;;;;1.10;0.60;;;4.30;99.90;;;;;;5011472;28;20444;-49
2023/03/27 11:36:21;;;;;;;1.17;0.80;;;4.40;99.90;;;;;;5002387;28;20892;-50
2023/03/27 11:38:57;;;;;;;1.07;0.70;;;4.50;99.90;;;;;;5013054;28;20479;-54
2023/03/27 11:41:25;;;;;;;1.10;0.77;;;4.50;99.90;;;;;;5013282;28;20556;-51
2023/03/27 11:43:52;;;;;;;1.07;0.87;;;4.50;99.90;;;;;;5014293;28;20502;-51
2023/03/27 11:46:47;;;;;;;0.90;0.60;;;4.60;99.90;;;;;;5013954;28;20452;-49
2023/03/27 11:49:35;;;;;;;3.00;1.93;;;4.60;99.90;;;;;;5013448;28;20791;-49
2023/03/27 11:52:15;;;;;;;1.60;0.90;;;4.60;99.90;;;;;;5013626;28;20566;-51
2023/03/27 11:54:53;;;;;;;1.30;0.60;;;4.90;99.90;;;;;;5014157;28;20952;-50
2023/03/27 11:57:24;;;;;;;1.50;0.83;;;4.80;99.90;;;;;;5013554;28;20568;-51
2023/03/27 12:00:10;;;;;;;0.87;0.60;;;4.90;99.90;;;;;;5013756;28;20460;-51
2023/03/27 12:03:02;;;;;;;0.97;0.70;;;4.90;99.90;;;;;;5013497;28;20483;-54
2023/03/27 12:05:41;;;;;;;0.97;0.83;;;5.00;99.90;;;;;;5013780;28;20536;-50
2023/03/27 12:08:16;;;;;;;1.30;0.90;;;5.40;99.90;;;;;;5014416;28;20480;-51
2023/03/27 12:10:48;;;;;;;0.90;0.60;;;5.40;99.90;;;;;;5014649;28;20534;-50
2023/03/27 12:13:59;;;;;;;0.80;0.50;;;5.50;99.90;;;;;;5016537;28;20443;-51
2023/03/27 12:16:43;;;;;;;0.90;0.70;;;5.50;99.90;;;;;;5018881;28;20962;-54
2023/03/27 12:19:35;;;;;;;0.80;0.50;;;5.50;99.90;;;;;;5018787;28;20454;-50
2023/03/27 12:22:15;;;;;;;0.90;0.80;;;5.40;99.90;;;;;;5018191;28;20513;-51
2023/03/27 12:24:48;;;;;;;1.10;0.80;;;5.40;99.90;;;;;;5017827;28;20508;-51
2023/03/27 12:27:36;;;;;;;1.20;0.60;;;5.40;99.90;;;;;;5017566;28;20446;-51
2023/03/27 12:30:21;;;;;;;1.00;0.70;;;5.40;99.90;;;;;;5017907;28;20457;-51
2023/03/27 12:33:30;;;;;;;1.00;0.70;;;5.20;99.90;;;;;;5017140;28;20843;-51
2023/03/27 12:36:00;;;;;;;1.10;0.70;;;5.00;99.90;;;;;;5011746;28;20527;-56
2023/03/27 12:38:30;;;;;;;1.10;0.87;;;4.90;99.90;;;;;;5017400;28;20480;-52
2023/03/27 12:41:04;;;;;;;1.43;0.90;;;4.90;99.90;;;;;;5017025;28;20441;-51
2023/03/27 12:43:38;;;;;;;1.20;0.80;;;4.90;99.90;;;;;;5017183;28;20564;-50
2023/03/27 12:46:14;;;;;;;0.97;0.70;;;5.00;99.90;;;;;;5016621;28;20895;-49
2023/03/27 12:48:55;;;;;;;1.10;0.60;;;5.00;99.90;;;;;;5016458;28;20511;-49
2023/03/27 12:51:37;;;;;;;1.20;0.97;;;4.90;99.90;;;;;;5015504;28;20471;-49
2023/03/27 12:54:23;;;;;;;1.60;1.20;;;4.90;99.90;;;;;;5017010;28;20543;-51
2023/03/27 12:56:51;;;;;;;1.20;0.83;;;4.70;99.90;;;;;;5015333;28;20455;-50
2023/03/27 12:59:25;;;;;;;0.90;0.60;;;4.70;99.90;;;;;;5015188;28;20484;-51
2023/03/27 13:02:16;;;;;;;1.00;0.77;;;4.60;99.90;;;;;;5015455;28;20562;-51
2023/03/27 13:05:34;;;;;;;0.90;0.60;;;4.70;99.90;;;;;;5014240;28;20974;-51
2023/03/27 13:08:29;;;;;;;1.33;0.87;;;4.60;99.90;;;;;;4954060;29;20450;-51
2023/03/27 13:11:00;;;;;;;1.27;0.87;;;4.50;99.90;;;;;;4950675;29;20539;-50
2023/03/27 13:13:56;;;;;;;0.97;0.80;;;4.40;99.90;;;;;;4993430;28;20522;-55
2023/03/27 13:16:39;;;;;;;1.00;0.73;;;4.40;99.90;;;;;;5014732;28;20439;-49
2023/03/27 13:19:35;;;;;;;1.00;0.60;;;4.30;99.90;;;;;;5013563;28;20869;-49
2023/03/27 13:22:26;;;;;;;1.00;0.70;;;4.30;99.90;;;;;;5009329;28;20512;-51
2023/03/27 13:25:16;;;;;;;0.90;0.70;;;4.20;99.90;;;;;;5004399;28;20522;-50